sensor_id;sensor_type;location;lat;lon;timestamp;P1;durP1;ratioP1;P2;durP2;ratioP2
78672;SDS011;67988;60.086;30.354;2023-03-13T00:00:49;2.08;;;1.75;;
78672;SDS011;67988;60.086;30.354;2023-03-13T00:03:17;4.22;;;2.05;;
78672;SDS011;67988;60.086;30.354;2023-03-13T00:05:44;2.08;;;1.98;;
78672;SDS011;67988;60.086;30.354;2023-03-13T00:08:11;1.88;;;1.65;;
78672;SDS011;67988;60.086;30.354;2023-03-13T00:10:40;3.25;;;1.45;;
78672;SDS011;67988;60.086;30.354;2023-03-13T00:13:07;1.70;;;1.17;;
78672;SDS011;67988;60.086;30.354;2023-03-13T00:15:34;2.88;;;1.02;;
78672;SDS011;67988;60.086;30.354;2023-03-13T00:18:01;2.58;;;1.55;;
78672;SDS011;67988;60.086;30.354;2023-03-13T00:20:29;3.22;;;0.93;;
78672;SDS011;67988;60.086;30.354;2023-03-13T00:22:56;1.35;;;0.90;;
78672;SDS011;67988;60.086;30.354;2023-03-13T00:25:23;1.33;;;1.23;;
78672;SDS011;67988;60.086;30.354;2023-03-13T00:27:52;1.50;;;0.93;;
78672;SDS011;67988;60.086;30.354;2023-03-13T00:30:19;0.65;;;0.60;;
78672;SDS011;67988;60.086;30.354;2023-03-13T00:32:46;2.55;;;2.35;;
78672;SDS011;67988;60.086;30.354;2023-03-13T00:35:13;1.85;;;1.33;;
78672;SDS011;67988;60.086;30.354;2023-03-13T00:37:41;1.48;;;1.17;;
78672;SDS011;67988;60.086;30.354;2023-03-13T00:40:08;1.65;;;1.55;;
78672;SDS011;67988;60.086;30.354;2023-03-13T00:42:36;1.98;;;1.35;;
78672;SDS011;67988;60.086;30.354;2023-03-13T00:45:05;1.85;;;1.02;;
78672;SDS011;67988;60.086;30.354;2023-03-13T00:47:32;1.67;;;1.30;;
78672;SDS011;67988;60.086;30.354;2023-03-13T00:50:00;1.13;;;1.02;;
78672;SDS011;67988;60.086;30.354;2023-03-13T00:52:27;2.33;;;2.13;;
78672;SDS011;67988;60.086;30.354;2023-03-13T00:54:54;1.38;;;1.27;;
78672;SDS011;67988;60.086;30.354;2023-03-13T00:57:21;1.50;;;1.05;;
78672;SDS011;67988;60.086;30.354;2023-03-13T00:59:51;2.28;;;1.45;;
78672;SDS011;67988;60.086;30.354;2023-03-13T01:02:19;1.73;;;1.63;;
78672;SDS011;67988;60.086;30.354;2023-03-13T01:04:46;4.32;;;2.90;;
78672;SDS011;67988;60.086;30.354;2023-03-13T01:07:14;1.40;;;0.98;;
78672;SDS011;67988;60.086;30.354;2023-03-13T01:09:41;2.78;;;1.25;;
78672;SDS011;67988;60.086;30.354;2023-03-13T01:12:08;2.47;;;1.25;;
78672;SDS011;67988;60.086;30.354;2023-03-13T01:14:35;4.00;;;1.15;;
78672;SDS011;67988;60.086;30.354;2023-03-13T01:17:02;2.65;;;1.98;;
78672;SDS011;67988;60.086;30.354;2023-03-13T01:19:31;3.63;;;3.42;;
78672;SDS011;67988;60.086;30.354;2023-03-13T01:24:24;2.25;;;1.10;;
78672;SDS011;67988;60.086;30.354;2023-03-13T01:26:51;1.75;;;1.23;;
78672;SDS011;67988;60.086;30.354;2023-03-13T01:29:18;2.60;;;1.42;;
78672;SDS011;67988;60.086;30.354;2023-03-13T01:31:45;1.98;;;1.77;;
78672;SDS011;67988;60.086;30.354;2023-03-13T01:34:12;3.20;;;1.05;;
78672;SDS011;67988;60.086;30.354;2023-03-13T01:36:40;4.25;;;4.05;;
78672;SDS011;67988;60.086;30.354;2023-03-13T01:39:08;1.85;;;1.33;;
78672;SDS011;67988;60.086;30.354;2023-03-13T01:41:36;2.22;;;1.75;;
78672;SDS011;67988;60.086;30.354;2023-03-13T01:49:23;3.53;;;1.30;;
78672;SDS011;67988;60.086;30.354;2023-03-13T01:52:03;2.15;;;1.40;;
78672;SDS011;67988;60.086;30.354;2023-03-13T01:54:38;2.03;;;1.52;;
78672;SDS011;67988;60.086;30.354;2023-03-13T01:57:12;3.50;;;0.70;;
78672;SDS011;67988;60.086;30.354;2023-03-13T01:59:44;1.60;;;0.95;;
78672;SDS011;67988;60.086;30.354;2023-03-13T02:02:15;4.60;;;1.42;;
78672;SDS011;67988;60.086;30.354;2023-03-13T02:04:43;1.80;;;0.90;;
78672;SDS011;67988;60.086;30.354;2023-03-13T02:07:16;3.15;;;1.30;;
78672;SDS011;67988;60.086;30.354;2023-03-13T02:09:46;1.20;;;0.95;;
78672;SDS011;67988;60.086;30.354;2023-03-13T02:12:17;3.40;;;1.42;;
78672;SDS011;67988;60.086;30.354;2023-03-13T02:14:49;1.42;;;1.00;;
78672;SDS011;67988;60.086;30.354;2023-03-13T02:17:18;1.60;;;1.23;;
78672;SDS011;67988;60.086;30.354;2023-03-13T02:19:46;2.40;;;1.40;;
78672;SDS011;67988;60.086;30.354;2023-03-13T02:22:20;1.08;;;0.95;;
78672;SDS011;67988;60.086;30.354;2023-03-13T02:24:55;1.10;;;0.95;;
78672;SDS011;67988;60.086;30.354;2023-03-13T02:27:32;1.70;;;1.60;;
78672;SDS011;67988;60.086;30.354;2023-03-13T02:29:59;1.60;;;1.50;;
78672;SDS011;67988;60.086;30.354;2023-03-13T02:32:26;2.28;;;1.33;;
78672;SDS011;67988;60.086;30.354;2023-03-13T02:34:56;1.17;;;0.93;;
78672;SDS011;67988;60.086;30.354;2023-03-13T02:37:27;1.48;;;1.35;;
78672;SDS011;67988;60.086;30.354;2023-03-13T02:39:57;2.78;;;1.20;;
78672;SDS011;67988;60.086;30.354;2023-03-13T02:42:28;1.40;;;0.70;;
78672;SDS011;67988;60.086;30.354;2023-03-13T02:44:58;3.90;;;0.95;;
78672;SDS011;67988;60.086;30.354;2023-03-13T02:47:26;5.22;;;1.13;;
78672;SDS011;67988;60.086;30.354;2023-03-13T02:49:53;2.05;;;1.05;;
78672;SDS011;67988;60.086;30.354;2023-03-13T02:52:22;1.88;;;1.17;;
78672;SDS011;67988;60.086;30.354;2023-03-13T02:54:53;2.60;;;1.60;;
78672;SDS011;67988;60.086;30.354;2023-03-13T02:57:25;1.27;;;1.15;;
78672;SDS011;67988;60.086;30.354;2023-03-13T02:59:52;4.70;;;2.22;;
78672;SDS011;67988;60.086;30.354;2023-03-13T03:02:20;1.42;;;1.33;;
78672;SDS011;67988;60.086;30.354;2023-03-13T03:07:14;1.48;;;1.38;;
78672;SDS011;67988;60.086;30.354;2023-03-13T03:09:41;0.95;;;0.85;;
78672;SDS011;67988;60.086;30.354;2023-03-13T03:12:12;1.42;;;1.08;;
78672;SDS011;67988;60.086;30.354;2023-03-13T03:14:39;1.48;;;0.60;;
78672;SDS011;67988;60.086;30.354;2023-03-13T03:17:07;1.35;;;0.70;;
78672;SDS011;67988;60.086;30.354;2023-03-13T03:19:35;1.65;;;1.38;;
78672;SDS011;67988;60.086;30.354;2023-03-13T03:24:31;2.80;;;1.65;;
78672;SDS011;67988;60.086;30.354;2023-03-13T03:26:58;1.60;;;1.45;;
78672;SDS011;67988;60.086;30.354;2023-03-13T03:29:30;4.72;;;1.52;;
78672;SDS011;67988;60.086;30.354;2023-03-13T03:31:58;2.33;;;1.45;;
78672;SDS011;67988;60.086;30.354;2023-03-13T03:34:25;1.77;;;1.58;;
78672;SDS011;67988;60.086;30.354;2023-03-13T03:36:54;1.85;;;1.25;;
78672;SDS011;67988;60.086;30.354;2023-03-13T03:39:21;2.78;;;2.58;;
78672;SDS011;67988;60.086;30.354;2023-03-13T03:41:49;4.20;;;0.80;;
78672;SDS011;67988;60.086;30.354;2023-03-13T03:44:16;1.83;;;1.15;;
78672;SDS011;67988;60.086;30.354;2023-03-13T03:46:52;2.10;;;1.38;;
78672;SDS011;67988;60.086;30.354;2023-03-13T03:49:20;2.25;;;2.13;;
78672;SDS011;67988;60.086;30.354;2023-03-13T03:51:48;2.80;;;2.38;;
78672;SDS011;67988;60.086;30.354;2023-03-13T03:54:21;1.45;;;1.23;;
78672;SDS011;67988;60.086;30.354;2023-03-13T03:59:15;1.77;;;0.95;;
78672;SDS011;67988;60.086;30.354;2023-03-13T04:01:54;0.93;;;0.93;;
78672;SDS011;67988;60.086;30.354;2023-03-13T04:04:23;1.45;;;1.08;;
78672;SDS011;67988;60.086;30.354;2023-03-13T04:06:57;2.58;;;1.63;;
78672;SDS011;67988;60.086;30.354;2023-03-13T04:09:28;2.17;;;1.63;;
78672;SDS011;67988;60.086;30.354;2023-03-13T04:11:55;1.38;;;1.27;;
78672;SDS011;67988;60.086;30.354;2023-03-13T04:14:22;2.05;;;0.95;;
78672;SDS011;67988;60.086;30.354;2023-03-13T04:16:49;1.58;;;0.90;;
78672;SDS011;67988;60.086;30.354;2023-03-13T04:19:16;1.20;;;0.95;;
78672;SDS011;67988;60.086;30.354;2023-03-13T04:21:44;2.13;;;1.92;;
78672;SDS011;67988;60.086;30.354;2023-03-13T04:24:14;2.28;;;1.50;;
78672;SDS011;67988;60.086;30.354;2023-03-13T04:26:43;2.10;;;1.40;;
78672;SDS011;67988;60.086;30.354;2023-03-13T04:29:10;1.38;;;1.27;;
78672;SDS011;67988;60.086;30.354;2023-03-13T04:31:57;2.40;;;1.80;;
78672;SDS011;67988;60.086;30.354;2023-03-13T04:34:39;1.58;;;1.35;;
78672;SDS011;67988;60.086;30.354;2023-03-13T04:37:29;2.30;;;1.73;;
78672;SDS011;67988;60.086;30.354;2023-03-13T04:40:15;2.60;;;2.30;;
78672;SDS011;67988;60.086;30.354;2023-03-13T04:43:00;2.38;;;2.17;;
78672;SDS011;67988;60.086;30.354;2023-03-13T04:45:56;2.00;;;1.80;;
78672;SDS011;67988;60.086;30.354;2023-03-13T04:48:59;2.53;;;1.48;;
78672;SDS011;67988;60.086;30.354;2023-03-13T04:51:45;2.28;;;1.77;;
78672;SDS011;67988;60.086;30.354;2023-03-13T04:54:35;2.08;;;1.60;;
78672;SDS011;67988;60.086;30.354;2023-03-13T04:57:08;2.72;;;1.25;;
78672;SDS011;67988;60.086;30.354;2023-03-13T04:59:50;1.08;;;1.05;;
78672;SDS011;67988;60.086;30.354;2023-03-13T05:02:32;0.60;;;0.60;;
78672;SDS011;67988;60.086;30.354;2023-03-13T05:05:25;3.42;;;0.52;;
78672;SDS011;67988;60.086;30.354;2023-03-13T05:08:20;2.05;;;1.13;;
78672;SDS011;67988;60.086;30.354;2023-03-13T05:11:03;1.10;;;0.70;;
78672;SDS011;67988;60.086;30.354;2023-03-13T05:13:51;1.25;;;1.15;;
78672;SDS011;67988;60.086;30.354;2023-03-13T05:16:31;1.42;;;1.33;;
78672;SDS011;67988;60.086;30.354;2023-03-13T05:19:24;1.20;;;0.57;;
78672;SDS011;67988;60.086;30.354;2023-03-13T05:22:12;4.43;;;3.10;;
78672;SDS011;67988;60.086;30.354;2023-03-13T05:25:08;1.60;;;1.50;;
78672;SDS011;67988;60.086;30.354;2023-03-13T05:28:07;1.35;;;1.25;;
78672;SDS011;67988;60.086;30.354;2023-03-13T05:31:03;0.82;;;0.80;;
78672;SDS011;67988;60.086;30.354;2023-03-13T05:34:00;1.80;;;1.50;;
78672;SDS011;67988;60.086;30.354;2023-03-13T05:37:03;1.48;;;1.13;;
78672;SDS011;67988;60.086;30.354;2023-03-13T05:39:30;0.73;;;0.73;;
78672;SDS011;67988;60.086;30.354;2023-03-13T05:42:11;1.17;;;0.77;;
78672;SDS011;67988;60.086;30.354;2023-03-13T05:44:50;1.50;;;1.00;;
78672;SDS011;67988;60.086;30.354;2023-03-13T05:47:35;1.90;;;1.40;;
78672;SDS011;67988;60.086;30.354;2023-03-13T05:53:19;1.48;;;1.38;;
78672;SDS011;67988;60.086;30.354;2023-03-13T05:56:09;3.47;;;3.28;;
78672;SDS011;67988;60.086;30.354;2023-03-13T05:58:36;1.30;;;0.73;;
78672;SDS011;67988;60.086;30.354;2023-03-13T06:01:29;1.50;;;1.33;;
78672;SDS011;67988;60.086;30.354;2023-03-13T06:04:15;1.05;;;0.77;;
78672;SDS011;67988;60.086;30.354;2023-03-13T06:06:43;1.35;;;1.23;;
78672;SDS011;67988;60.086;30.354;2023-03-13T06:09:14;1.65;;;0.93;;
78672;SDS011;67988;60.086;30.354;2023-03-13T06:11:42;2.10;;;1.73;;
78672;SDS011;67988;60.086;30.354;2023-03-13T06:14:09;1.52;;;1.42;;
78672;SDS011;67988;60.086;30.354;2023-03-13T06:16:46;1.25;;;1.25;;
78672;SDS011;67988;60.086;30.354;2023-03-13T06:19:16;1.02;;;0.95;;
78672;SDS011;67988;60.086;30.354;2023-03-13T06:21:46;4.35;;;1.35;;
78672;SDS011;67988;60.086;30.354;2023-03-13T06:24:14;2.10;;;1.75;;
78672;SDS011;67988;60.086;30.354;2023-03-13T06:26:41;1.08;;;0.93;;
78672;SDS011;67988;60.086;30.354;2023-03-13T06:29:09;1.63;;;1.27;;
78672;SDS011;67988;60.086;30.354;2023-03-13T06:31:37;4.97;;;1.45;;
78672;SDS011;67988;60.086;30.354;2023-03-13T06:34:05;1.65;;;1.52;;
78672;SDS011;67988;60.086;30.354;2023-03-13T06:36:33;1.33;;;1.23;;
78672;SDS011;67988;60.086;30.354;2023-03-13T06:39:02;1.10;;;1.00;;
78672;SDS011;67988;60.086;30.354;2023-03-13T06:41:30;1.17;;;1.02;;
78672;SDS011;67988;60.086;30.354;2023-03-13T06:43:57;2.60;;;1.38;;
78672;SDS011;67988;60.086;30.354;2023-03-13T06:46:25;1.98;;;1.73;;
78672;SDS011;67988;60.086;30.354;2023-03-13T06:48:52;1.80;;;1.13;;
78672;SDS011;67988;60.086;30.354;2023-03-13T06:51:20;3.58;;;0.95;;
78672;SDS011;67988;60.086;30.354;2023-03-13T06:53:47;2.35;;;1.02;;
78672;SDS011;67988;60.086;30.354;2023-03-13T06:56:17;1.88;;;1.42;;
78672;SDS011;67988;60.086;30.354;2023-03-13T06:58:46;3.05;;;1.15;;
78672;SDS011;67988;60.086;30.354;2023-03-13T07:01:14;4.40;;;2.20;;
78672;SDS011;67988;60.086;30.354;2023-03-13T07:03:42;1.50;;;1.17;;
78672;SDS011;67988;60.086;30.354;2023-03-13T07:06:09;1.77;;;0.98;;
78672;SDS011;67988;60.086;30.354;2023-03-13T07:08:37;4.55;;;1.50;;
78672;SDS011;67988;60.086;30.354;2023-03-13T07:11:06;4.53;;;1.55;;
78672;SDS011;67988;60.086;30.354;2023-03-13T07:13:35;1.85;;;1.30;;
78672;SDS011;67988;60.086;30.354;2023-03-13T07:16:03;1.73;;;1.08;;
78672;SDS011;67988;60.086;30.354;2023-03-13T07:18:32;4.45;;;1.13;;
78672;SDS011;67988;60.086;30.354;2023-03-13T07:21:00;2.60;;;1.02;;
78672;SDS011;67988;60.086;30.354;2023-03-13T07:23:30;1.67;;;1.30;;
78672;SDS011;67988;60.086;30.354;2023-03-13T07:25:59;3.88;;;2.47;;
78672;SDS011;67988;60.086;30.354;2023-03-13T07:28:28;5.15;;;1.45;;
78672;SDS011;67988;60.086;30.354;2023-03-13T07:31:04;2.97;;;1.08;;
78672;SDS011;67988;60.086;30.354;2023-03-13T07:33:32;3.80;;;3.60;;
78672;SDS011;67988;60.086;30.354;2023-03-13T07:36:00;4.18;;;1.08;;
78672;SDS011;67988;60.086;30.354;2023-03-13T07:38:27;3.53;;;1.55;;
78672;SDS011;67988;60.086;30.354;2023-03-13T07:40:56;4.05;;;1.85;;
78672;SDS011;67988;60.086;30.354;2023-03-13T07:43:24;2.60;;;1.27;;
78672;SDS011;67988;60.086;30.354;2023-03-13T07:45:52;2.13;;;1.13;;
78672;SDS011;67988;60.086;30.354;2023-03-13T07:48:23;2.67;;;2.47;;
78672;SDS011;67988;60.086;30.354;2023-03-13T07:50:52;2.40;;;1.83;;
78672;SDS011;67988;60.086;30.354;2023-03-13T07:53:19;3.55;;;1.38;;
78672;SDS011;67988;60.086;30.354;2023-03-13T07:55:56;4.45;;;1.10;;
78672;SDS011;67988;60.086;30.354;2023-03-13T07:58:25;3.13;;;1.75;;
78672;SDS011;67988;60.086;30.354;2023-03-13T08:00:53;1.10;;;0.70;;
78672;SDS011;67988;60.086;30.354;2023-03-13T08:03:21;2.03;;;0.93;;
78672;SDS011;67988;60.086;30.354;2023-03-13T08:05:56;3.38;;;1.77;;
78672;SDS011;67988;60.086;30.354;2023-03-13T08:10:51;2.13;;;1.38;;
78672;SDS011;67988;60.086;30.354;2023-03-13T08:13:18;4.20;;;1.70;;
78672;SDS011;67988;60.086;30.354;2023-03-13T08:15:45;2.80;;;1.13;;
78672;SDS011;67988;60.086;30.354;2023-03-13T08:18:12;2.45;;;0.77;;
78672;SDS011;67988;60.086;30.354;2023-03-13T08:20:40;1.02;;;0.82;;
78672;SDS011;67988;60.086;30.354;2023-03-13T08:23:07;3.28;;;0.77;;
78672;SDS011;67988;60.086;30.354;2023-03-13T08:25:34;3.55;;;0.90;;
78672;SDS011;67988;60.086;30.354;2023-03-13T08:28:01;2.50;;;0.90;;
78672;SDS011;67988;60.086;30.354;2023-03-13T08:30:28;3.20;;;1.08;;
78672;SDS011;67988;60.086;30.354;2023-03-13T08:32:55;2.15;;;1.15;;
78672;SDS011;67988;60.086;30.354;2023-03-13T08:35:22;4.57;;;1.10;;
78672;SDS011;67988;60.086;30.354;2023-03-13T08:37:50;2.92;;;2.72;;
78672;SDS011;67988;60.086;30.354;2023-03-13T08:40:17;3.53;;;1.65;;
78672;SDS011;67988;60.086;30.354;2023-03-13T08:42:44;2.58;;;1.20;;
78672;SDS011;67988;60.086;30.354;2023-03-13T08:45:11;0.95;;;0.93;;
78672;SDS011;67988;60.086;30.354;2023-03-13T08:47:38;0.88;;;0.68;;
78672;SDS011;67988;60.086;30.354;2023-03-13T08:50:05;3.67;;;0.80;;
78672;SDS011;67988;60.086;30.354;2023-03-13T08:52:33;1.48;;;0.75;;
78672;SDS011;67988;60.086;30.354;2023-03-13T08:55:01;1.38;;;1.00;;
78672;SDS011;67988;60.086;30.354;2023-03-13T08:57:28;2.13;;;1.42;;
78672;SDS011;67988;60.086;30.354;2023-03-13T08:59:55;3.88;;;0.80;;
78672;SDS011;67988;60.086;30.354;2023-03-13T09:02:22;2.22;;;0.82;;
78672;SDS011;67988;60.086;30.354;2023-03-13T09:04:49;0.80;;;0.60;;
78672;SDS011;67988;60.086;30.354;2023-03-13T09:07:16;2.25;;;1.48;;
78672;SDS011;67988;60.086;30.354;2023-03-13T09:09:43;2.25;;;1.10;;
78672;SDS011;67988;60.086;30.354;2023-03-13T09:12:11;0.90;;;0.70;;
78672;SDS011;67988;60.086;30.354;2023-03-13T09:14:38;2.55;;;0.65;;
78672;SDS011;67988;60.086;30.354;2023-03-13T09:17:05;1.08;;;0.65;;
78672;SDS011;67988;60.086;30.354;2023-03-13T09:19:33;2.05;;;0.70;;
78672;SDS011;67988;60.086;30.354;2023-03-13T09:22:00;2.70;;;1.00;;
78672;SDS011;67988;60.086;30.354;2023-03-13T09:24:27;4.35;;;1.20;;
78672;SDS011;67988;60.086;30.354;2023-03-13T09:26:54;2.38;;;1.02;;
78672;SDS011;67988;60.086;30.354;2023-03-13T09:29:22;3.75;;;1.63;;
78672;SDS011;67988;60.086;30.354;2023-03-13T09:31:49;3.78;;;0.82;;
78672;SDS011;67988;60.086;30.354;2023-03-13T09:34:16;3.33;;;1.02;;
78672;SDS011;67988;60.086;30.354;2023-03-13T09:36:43;2.72;;;1.17;;
78672;SDS011;67988;60.086;30.354;2023-03-13T09:39:10;1.95;;;0.63;;
78672;SDS011;67988;60.086;30.354;2023-03-13T09:41:38;2.70;;;1.13;;
78672;SDS011;67988;60.086;30.354;2023-03-13T09:44:10;4.75;;;0.80;;
78672;SDS011;67988;60.086;30.354;2023-03-13T09:46:48;2.10;;;1.02;;
78672;SDS011;67988;60.086;30.354;2023-03-13T09:49:28;2.30;;;0.73;;
78672;SDS011;67988;60.086;30.354;2023-03-13T09:51:59;3.67;;;1.65;;
78672;SDS011;67988;60.086;30.354;2023-03-13T09:54:33;1.92;;;1.38;;
78672;SDS011;67988;60.086;30.354;2023-03-13T09:57:05;1.55;;;0.93;;
78672;SDS011;67988;60.086;30.354;2023-03-13T09:59:42;0.98;;;0.60;;
78672;SDS011;67988;60.086;30.354;2023-03-13T10:02:17;1.20;;;0.70;;
78672;SDS011;67988;60.086;30.354;2023-03-13T10:04:50;6.00;;;1.05;;
78672;SDS011;67988;60.086;30.354;2023-03-13T10:07:22;0.77;;;0.50;;
78672;SDS011;67988;60.086;30.354;2023-03-13T10:09:49;4.50;;;1.30;;
78672;SDS011;67988;60.086;30.354;2023-03-13T10:12:18;0.80;;;0.50;;
78672;SDS011;67988;60.086;30.354;2023-03-13T10:14:49;0.80;;;0.63;;
78672;SDS011;67988;60.086;30.354;2023-03-13T10:17:30;2.05;;;1.10;;
78672;SDS011;67988;60.086;30.354;2023-03-13T10:19:59;1.80;;;1.00;;
78672;SDS011;67988;60.086;30.354;2023-03-13T10:22:33;2.97;;;1.63;;
78672;SDS011;67988;60.086;30.354;2023-03-13T10:25:02;2.40;;;0.88;;
78672;SDS011;67988;60.086;30.354;2023-03-13T10:27:41;3.72;;;1.50;;
78672;SDS011;67988;60.086;30.354;2023-03-13T10:30:13;2.97;;;0.73;;
78672;SDS011;67988;60.086;30.354;2023-03-13T10:32:49;1.67;;;1.20;;
78672;SDS011;67988;60.086;30.354;2023-03-13T10:35:19;2.47;;;1.77;;
78672;SDS011;67988;60.086;30.354;2023-03-13T10:37:47;2.65;;;0.93;;
78672;SDS011;67988;60.086;30.354;2023-03-13T10:40:19;2.38;;;0.90;;
78672;SDS011;67988;60.086;30.354;2023-03-13T10:42:48;1.40;;;1.10;;
78672;SDS011;67988;60.086;30.354;2023-03-13T10:45:18;1.88;;;1.08;;
78672;SDS011;67988;60.086;30.354;2023-03-13T10:47:53;1.90;;;1.27;;
78672;SDS011;67988;60.086;30.354;2023-03-13T10:50:23;1.88;;;0.52;;
78672;SDS011;67988;60.086;30.354;2023-03-13T10:52:52;2.85;;;1.27;;
78672;SDS011;67988;60.086;30.354;2023-03-13T10:55:21;2.72;;;0.65;;
78672;SDS011;67988;60.086;30.354;2023-03-13T10:57:52;0.75;;;0.73;;
78672;SDS011;67988;60.086;30.354;2023-03-13T11:00:28;0.95;;;0.65;;
78672;SDS011;67988;60.086;30.354;2023-03-13T11:03:00;1.10;;;0.60;;
78672;SDS011;67988;60.086;30.354;2023-03-13T11:05:32;1.63;;;0.75;;
78672;SDS011;67988;60.086;30.354;2023-03-13T11:08:11;2.75;;;0.82;;
78672;SDS011;67988;60.086;30.354;2023-03-13T11:10:52;3.75;;;1.30;;
78672;SDS011;67988;60.086;30.354;2023-03-13T11:13:34;1.35;;;0.60;;
78672;SDS011;67988;60.086;30.354;2023-03-13T11:18:57;1.63;;;0.60;;
78672;SDS011;67988;60.086;30.354;2023-03-13T11:21:37;1.42;;;0.90;;
78672;SDS011;67988;60.086;30.354;2023-03-13T11:24:12;1.02;;;0.70;;
78672;SDS011;67988;60.086;30.354;2023-03-13T11:26:50;2.72;;;0.98;;
78672;SDS011;67988;60.086;30.354;2023-03-13T11:29:25;1.52;;;0.90;;
78672;SDS011;67988;60.086;30.354;2023-03-13T11:31:59;1.80;;;1.45;;
78672;SDS011;67988;60.086;30.354;2023-03-13T11:34:33;0.95;;;0.60;;
78672;SDS011;67988;60.086;30.354;2023-03-13T11:37:10;1.58;;;1.00;;
78672;SDS011;67988;60.086;30.354;2023-03-13T11:39:42;2.10;;;1.35;;
78672;SDS011;67988;60.086;30.354;2023-03-13T11:42:26;4.13;;;2.00;;
78672;SDS011;67988;60.086;30.354;2023-03-13T11:45:04;1.77;;;1.25;;
78672;SDS011;67988;60.086;30.354;2023-03-13T11:47:41;1.65;;;1.35;;
78672;SDS011;67988;60.086;30.354;2023-03-13T11:50:31;2.17;;;1.98;;
78672;SDS011;67988;60.086;30.354;2023-03-13T11:56:05;1.60;;;1.20;;
78672;SDS011;67988;60.086;30.354;2023-03-13T11:58:44;1.63;;;0.82;;
78672;SDS011;67988;60.086;30.354;2023-03-13T12:01:25;2.22;;;1.50;;
78672;SDS011;67988;60.086;30.354;2023-03-13T12:03:56;4.43;;;1.85;;
78672;SDS011;67988;60.086;30.354;2023-03-13T12:06:29;2.55;;;0.88;;
78672;SDS011;67988;60.086;30.354;2023-03-13T12:09:00;2.33;;;1.80;;
78672;SDS011;67988;60.086;30.354;2023-03-13T12:11:32;5.43;;;3.75;;
78672;SDS011;67988;60.086;30.354;2023-03-13T12:14:09;2.40;;;2.20;;
78672;SDS011;67988;60.086;30.354;2023-03-13T12:16:40;2.47;;;2.28;;
78672;SDS011;67988;60.086;30.354;2023-03-13T12:19:10;4.20;;;2.67;;
78672;SDS011;67988;60.086;30.354;2023-03-13T12:21:42;4.72;;;2.08;;
78672;SDS011;67988;60.086;30.354;2023-03-13T12:24:18;2.63;;;2.42;;
78672;SDS011;67988;60.086;30.354;2023-03-13T12:26:53;1.75;;;1.65;;
78672;SDS011;67988;60.086;30.354;2023-03-13T12:29:26;3.70;;;3.45;;
78672;SDS011;67988;60.086;30.354;2023-03-13T12:32:03;2.65;;;2.45;;
78672;SDS011;67988;60.086;30.354;2023-03-13T12:34:41;2.25;;;1.80;;
78672;SDS011;67988;60.086;30.354;2023-03-13T12:37:19;1.45;;;1.35;;
78672;SDS011;67988;60.086;30.354;2023-03-13T12:39:52;3.38;;;2.17;;
78672;SDS011;67988;60.086;30.354;2023-03-13T12:42:28;10.85;;;1.50;;
78672;SDS011;67988;60.086;30.354;2023-03-13T12:45:06;3.05;;;1.95;;
78672;SDS011;67988;60.086;30.354;2023-03-13T12:47:39;1.48;;;1.13;;
78672;SDS011;67988;60.086;30.354;2023-03-13T12:50:31;2.28;;;1.73;;
78672;SDS011;67988;60.086;30.354;2023-03-13T12:53:15;1.70;;;1.23;;
78672;SDS011;67988;60.086;30.354;2023-03-13T12:55:59;5.60;;;1.60;;
78672;SDS011;67988;60.086;30.354;2023-03-13T12:58:40;1.95;;;1.67;;
78672;SDS011;67988;60.086;30.354;2023-03-13T13:01:12;3.00;;;0.95;;
78672;SDS011;67988;60.086;30.354;2023-03-13T13:10:31;1.85;;;1.42;;
78672;SDS011;67988;60.086;30.354;2023-03-13T13:13:24;1.52;;;1.20;;
78672;SDS011;67988;60.086;30.354;2023-03-13T13:15:59;4.20;;;2.10;;
78672;SDS011;67988;60.086;30.354;2023-03-13T13:18:30;2.15;;;1.33;;
78672;SDS011;67988;60.086;30.354;2023-03-13T13:23:52;1.92;;;0.80;;
78672;SDS011;67988;60.086;30.354;2023-03-13T13:36:41;2.78;;;1.58;;
78672;SDS011;67988;60.086;30.354;2023-03-13T13:39:29;2.60;;;2.17;;
78672;SDS011;67988;60.086;30.354;2023-03-13T13:47:52;4.05;;;2.30;;
78672;SDS011;67988;60.086;30.354;2023-03-13T13:53:55;3.03;;;1.48;;
78672;SDS011;67988;60.086;30.354;2023-03-13T13:56:29;3.05;;;1.10;;
78672;SDS011;67988;60.086;30.354;2023-03-13T13:59:20;1.35;;;0.90;;
78672;SDS011;67988;60.086;30.354;2023-03-13T14:04:59;3.53;;;1.42;;
78672;SDS011;67988;60.086;30.354;2023-03-13T14:10:28;7.85;;;1.20;;
78672;SDS011;67988;60.086;30.354;2023-03-13T14:13:09;1.92;;;1.42;;
78672;SDS011;67988;60.086;30.354;2023-03-13T14:15:45;4.18;;;3.88;;
78672;SDS011;67988;60.086;30.354;2023-03-13T14:18:15;2.78;;;0.93;;
78672;SDS011;67988;60.086;30.354;2023-03-13T14:20:53;7.28;;;2.92;;
78672;SDS011;67988;60.086;30.354;2023-03-13T14:23:27;1.70;;;0.75;;
78672;SDS011;67988;60.086;30.354;2023-03-13T14:26:08;3.97;;;1.70;;
78672;SDS011;67988;60.086;30.354;2023-03-13T14:28:39;6.35;;;3.63;;
78672;SDS011;67988;60.086;30.354;2023-03-13T14:31:09;5.00;;;2.65;;
78672;SDS011;67988;60.086;30.354;2023-03-13T14:33:36;3.47;;;2.03;;
78672;SDS011;67988;60.086;30.354;2023-03-13T14:36:04;3.83;;;2.47;;
78672;SDS011;67988;60.086;30.354;2023-03-13T14:38:33;5.47;;;2.40;;
78672;SDS011;67988;60.086;30.354;2023-03-13T14:41:01;2.80;;;1.90;;
78672;SDS011;67988;60.086;30.354;2023-03-13T14:43:31;3.60;;;1.60;;
78672;SDS011;67988;60.086;30.354;2023-03-13T14:46:13;3.70;;;2.00;;
78672;SDS011;67988;60.086;30.354;2023-03-13T14:48:46;5.18;;;2.47;;
78672;SDS011;67988;60.086;30.354;2023-03-13T14:51:16;6.22;;;3.92;;
78672;SDS011;67988;60.086;30.354;2023-03-13T14:53:54;8.25;;;3.63;;
78672;SDS011;67988;60.086;30.354;2023-03-13T14:56:30;5.75;;;3.03;;
78672;SDS011;67988;60.086;30.354;2023-03-13T14:59:07;4.38;;;2.00;;
78672;SDS011;67988;60.086;30.354;2023-03-13T15:01:43;4.60;;;1.70;;
78672;SDS011;67988;60.086;30.354;2023-03-13T15:04:12;3.10;;;1.15;;
78672;SDS011;67988;60.086;30.354;2023-03-13T15:06:42;6.45;;;2.30;;
78672;SDS011;67988;60.086;30.354;2023-03-13T15:09:15;7.30;;;1.77;;
78672;SDS011;67988;60.086;30.354;2023-03-13T15:11:54;4.40;;;2.08;;
78672;SDS011;67988;60.086;30.354;2023-03-13T15:14:31;5.88;;;2.50;;
78672;SDS011;67988;60.086;30.354;2023-03-13T15:17:12;19.85;;;4.18;;
78672;SDS011;67988;60.086;30.354;2023-03-13T15:19:42;11.88;;;4.53;;
78672;SDS011;67988;60.086;30.354;2023-03-13T15:22:15;26.30;;;6.60;;
78672;SDS011;67988;60.086;30.354;2023-03-13T15:24:46;23.33;;;4.78;;
78672;SDS011;67988;60.086;30.354;2023-03-13T15:27:16;8.93;;;4.00;;
78672;SDS011;67988;60.086;30.354;2023-03-13T15:29:46;17.50;;;5.47;;
78672;SDS011;67988;60.086;30.354;2023-03-13T15:32:18;23.67;;;6.07;;
78672;SDS011;67988;60.086;30.354;2023-03-13T15:34:52;24.42;;;6.78;;
78672;SDS011;67988;60.086;30.354;2023-03-13T15:37:23;11.02;;;3.65;;
78672;SDS011;67988;60.086;30.354;2023-03-13T15:39:52;13.02;;;3.65;;
78672;SDS011;67988;60.086;30.354;2023-03-13T15:42:21;24.65;;;3.72;;
78672;SDS011;67988;60.086;30.354;2023-03-13T15:44:51;3.10;;;1.65;;
78672;SDS011;67988;60.086;30.354;2023-03-13T15:47:21;9.13;;;2.40;;
78672;SDS011;67988;60.086;30.354;2023-03-13T15:49:50;11.38;;;3.42;;
78672;SDS011;67988;60.086;30.354;2023-03-13T15:52:18;8.38;;;2.50;;
78672;SDS011;67988;60.086;30.354;2023-03-13T15:54:49;7.18;;;1.75;;
78672;SDS011;67988;60.086;30.354;2023-03-13T15:57:19;6.88;;;1.45;;
78672;SDS011;67988;60.086;30.354;2023-03-13T15:59:51;4.40;;;1.25;;
78672;SDS011;67988;60.086;30.354;2023-03-13T16:02:22;2.85;;;1.40;;
78672;SDS011;67988;60.086;30.354;2023-03-13T16:04:51;6.65;;;1.85;;